sensor_id;sensor_type;location;lat;lon;timestamp;P1;durP1;ratioP1;P2;durP2;ratioP2
72557;SDS011;60583;50.094;8.748;2024-01-30T00:02:16;19.27;;;10.82;;
72557;SDS011;60583;50.094;8.748;2024-01-30T00:05:00;19.98;;;12.07;;
72557;SDS011;60583;50.094;8.748;2024-01-30T00:07:44;20.70;;;12.57;;
72557;SDS011;60583;50.094;8.748;2024-01-30T00:10:28;22.10;;;12.82;;
72557;SDS011;60583;50.094;8.748;2024-01-30T00:13:12;21.58;;;11.88;;
72557;SDS011;60583;50.094;8.748;2024-01-30T00:15:57;20.88;;;12.25;;
72557;SDS011;60583;50.094;8.748;2024-01-30T00:18:42;19.55;;;12.20;;
72557;SDS011;60583;50.094;8.748;2024-01-30T00:21:26;18.42;;;11.05;;
72557;SDS011;60583;50.094;8.748;2024-01-30T00:24:10;18.00;;;11.13;;
72557;SDS011;60583;50.094;8.748;2024-01-30T00:26:54;19.80;;;11.07;;
72557;SDS011;60583;50.094;8.748;2024-01-30T00:29:38;19.40;;;11.38;;
72557;SDS011;60583;50.094;8.748;2024-01-30T00:32:22;18.55;;;10.82;;
72557;SDS011;60583;50.094;8.748;2024-01-30T00:35:07;20.52;;;11.68;;
72557;SDS011;60583;50.094;8.748;2024-01-30T00:37:53;23.17;;;12.82;;
72557;SDS011;60583;50.094;8.748;2024-01-30T00:40:37;18.67;;;11.20;;
72557;SDS011;60583;50.094;8.748;2024-01-30T00:43:21;22.02;;;11.85;;
72557;SDS011;60583;50.094;8.748;2024-01-30T00:46:05;21.02;;;11.57;;
72557;SDS011;60583;50.094;8.748;2024-01-30T00:48:49;17.73;;;10.85;;
72557;SDS011;60583;50.094;8.748;2024-01-30T00:51:33;25.10;;;12.82;;
72557;SDS011;60583;50.094;8.748;2024-01-30T00:54:17;19.77;;;11.52;;
72557;SDS011;60583;50.094;8.748;2024-01-30T00:57:01;20.73;;;11.48;;
72557;SDS011;60583;50.094;8.748;2024-01-30T00:59:45;19.48;;;11.68;;
72557;SDS011;60583;50.094;8.748;2024-01-30T01:02:29;20.23;;;11.52;;
72557;SDS011;60583;50.094;8.748;2024-01-30T01:05:13;19.02;;;12.07;;
72557;SDS011;60583;50.094;8.748;2024-01-30T01:07:57;20.30;;;12.35;;
72557;SDS011;60583;50.094;8.748;2024-01-30T01:10:41;18.00;;;11.63;;
72557;SDS011;60583;50.094;8.748;2024-01-30T01:13:24;18.55;;;11.60;;
72557;SDS011;60583;50.094;8.748;2024-01-30T01:16:08;18.65;;;10.60;;
72557;SDS011;60583;50.094;8.748;2024-01-30T01:18:52;18.15;;;11.18;;
72557;SDS011;60583;50.094;8.748;2024-01-30T01:21:36;17.52;;;10.90;;
72557;SDS011;60583;50.094;8.748;2024-01-30T01:24:20;16.13;;;10.85;;
72557;SDS011;60583;50.094;8.748;2024-01-30T01:27:04;17.77;;;10.77;;
72557;SDS011;60583;50.094;8.748;2024-01-30T01:29:49;18.30;;;11.25;;
72557;SDS011;60583;50.094;8.748;2024-01-30T01:32:33;17.45;;;10.98;;
72557;SDS011;60583;50.094;8.748;2024-01-30T01:35:17;17.13;;;10.65;;
72557;SDS011;60583;50.094;8.748;2024-01-30T01:38:01;17.27;;;10.52;;
72557;SDS011;60583;50.094;8.748;2024-01-30T01:40:46;17.52;;;10.43;;
72557;SDS011;60583;50.094;8.748;2024-01-30T01:43:30;17.55;;;10.30;;
72557;SDS011;60583;50.094;8.748;2024-01-30T01:46:14;16.85;;;10.45;;
72557;SDS011;60583;50.094;8.748;2024-01-30T01:48:57;15.45;;;9.55;;
72557;SDS011;60583;50.094;8.748;2024-01-30T01:51:45;14.93;;;9.40;;
72557;SDS011;60583;50.094;8.748;2024-01-30T01:54:31;15.05;;;8.80;;
72557;SDS011;60583;50.094;8.748;2024-01-30T01:57:16;15.88;;;9.80;;
72557;SDS011;60583;50.094;8.748;2024-01-30T02:00:00;15.57;;;8.85;;
72557;SDS011;60583;50.094;8.748;2024-01-30T02:02:45;16.50;;;8.90;;
72557;SDS011;60583;50.094;8.748;2024-01-30T02:05:30;15.45;;;8.55;;
72557;SDS011;60583;50.094;8.748;2024-01-30T02:08:15;14.93;;;9.02;;
72557;SDS011;60583;50.094;8.748;2024-01-30T02:10:59;16.98;;;9.55;;
72557;SDS011;60583;50.094;8.748;2024-01-30T02:13:43;15.15;;;9.20;;
72557;SDS011;60583;50.094;8.748;2024-01-30T02:16:27;15.77;;;9.07;;
72557;SDS011;60583;50.094;8.748;2024-01-30T02:19:11;17.05;;;9.60;;
72557;SDS011;60583;50.094;8.748;2024-01-30T02:21:55;17.60;;;9.75;;
72557;SDS011;60583;50.094;8.748;2024-01-30T02:24:39;15.95;;;9.35;;
72557;SDS011;60583;50.094;8.748;2024-01-30T02:27:23;16.13;;;9.10;;
72557;SDS011;60583;50.094;8.748;2024-01-30T02:30:07;16.40;;;8.95;;
72557;SDS011;60583;50.094;8.748;2024-01-30T02:32:52;14.15;;;8.18;;
72557;SDS011;60583;50.094;8.748;2024-01-30T02:35:36;14.75;;;8.45;;
72557;SDS011;60583;50.094;8.748;2024-01-30T02:38:20;14.10;;;8.13;;
72557;SDS011;60583;50.094;8.748;2024-01-30T02:41:04;15.80;;;9.35;;
72557;SDS011;60583;50.094;8.748;2024-01-30T02:43:48;16.20;;;8.20;;
72557;SDS011;60583;50.094;8.748;2024-01-30T02:46:31;15.10;;;8.70;;
72557;SDS011;60583;50.094;8.748;2024-01-30T02:49:16;14.98;;;8.63;;
72557;SDS011;60583;50.094;8.748;2024-01-30T02:51:59;13.68;;;8.68;;
72557;SDS011;60583;50.094;8.748;2024-01-30T02:54:43;14.05;;;8.52;;
72557;SDS011;60583;50.094;8.748;2024-01-30T02:57:28;14.95;;;8.38;;
72557;SDS011;60583;50.094;8.748;2024-01-30T03:00:12;13.68;;;8.40;;
72557;SDS011;60583;50.094;8.748;2024-01-30T03:02:57;14.18;;;8.32;;
72557;SDS011;60583;50.094;8.748;2024-01-30T03:05:41;14.35;;;8.32;;
72557;SDS011;60583;50.094;8.748;2024-01-30T03:08:25;16.48;;;8.50;;
72557;SDS011;60583;50.094;8.748;2024-01-30T03:11:09;14.45;;;8.43;;
72557;SDS011;60583;50.094;8.748;2024-01-30T03:13:52;14.43;;;8.38;;
72557;SDS011;60583;50.094;8.748;2024-01-30T03:16:37;15.27;;;8.52;;
72557;SDS011;60583;50.094;8.748;2024-01-30T03:19:21;15.48;;;9.35;;
72557;SDS011;60583;50.094;8.748;2024-01-30T03:22:05;15.18;;;9.00;;
72557;SDS011;60583;50.094;8.748;2024-01-30T03:24:49;15.77;;;9.85;;
72557;SDS011;60583;50.094;8.748;2024-01-30T03:27:33;15.65;;;8.60;;
72557;SDS011;60583;50.094;8.748;2024-01-30T03:30:17;15.13;;;9.38;;
72557;SDS011;60583;50.094;8.748;2024-01-30T03:33:01;16.23;;;9.20;;
72557;SDS011;60583;50.094;8.748;2024-01-30T03:35:45;14.80;;;8.75;;
72557;SDS011;60583;50.094;8.748;2024-01-30T03:38:29;16.83;;;8.73;;
72557;SDS011;60583;50.094;8.748;2024-01-30T03:41:13;17.42;;;9.55;;
72557;SDS011;60583;50.094;8.748;2024-01-30T03:43:57;15.15;;;8.85;;
72557;SDS011;60583;50.094;8.748;2024-01-30T03:46:41;15.80;;;8.52;;
72557;SDS011;60583;50.094;8.748;2024-01-30T03:49:25;15.35;;;8.45;;
72557;SDS011;60583;50.094;8.748;2024-01-30T03:52:09;15.80;;;8.63;;
72557;SDS011;60583;50.094;8.748;2024-01-30T03:54:52;14.60;;;8.95;;
72557;SDS011;60583;50.094;8.748;2024-01-30T03:57:36;15.70;;;9.32;;
72557;SDS011;60583;50.094;8.748;2024-01-30T04:00:20;15.32;;;9.02;;
72557;SDS011;60583;50.094;8.748;2024-01-30T04:03:04;14.00;;;8.40;;
72557;SDS011;60583;50.094;8.748;2024-01-30T04:05:48;14.15;;;8.77;;
72557;SDS011;60583;50.094;8.748;2024-01-30T04:08:32;14.63;;;8.70;;
72557;SDS011;60583;50.094;8.748;2024-01-30T04:11:18;14.80;;;8.25;;
72557;SDS011;60583;50.094;8.748;2024-01-30T04:14:02;14.65;;;8.40;;
72557;SDS011;60583;50.094;8.748;2024-01-30T04:16:46;14.30;;;8.70;;
72557;SDS011;60583;50.094;8.748;2024-01-30T04:19:30;16.23;;;8.98;;
72557;SDS011;60583;50.094;8.748;2024-01-30T04:22:13;16.00;;;9.45;;
72557;SDS011;60583;50.094;8.748;2024-01-30T04:24:57;12.95;;;8.90;;
72557;SDS011;60583;50.094;8.748;2024-01-30T04:27:41;18.95;;;9.30;;
72557;SDS011;60583;50.094;8.748;2024-01-30T04:30:25;14.95;;;8.48;;
72557;SDS011;60583;50.094;8.748;2024-01-30T04:33:10;15.00;;;9.02;;
72557;SDS011;60583;50.094;8.748;2024-01-30T04:35:54;14.05;;;8.82;;
72557;SDS011;60583;50.094;8.748;2024-01-30T04:38:38;15.18;;;8.52;;
72557;SDS011;60583;50.094;8.748;2024-01-30T04:41:22;13.85;;;8.85;;
72557;SDS011;60583;50.094;8.748;2024-01-30T04:44:06;14.20;;;8.30;;
72557;SDS011;60583;50.094;8.748;2024-01-30T04:46:50;18.42;;;9.25;;
72557;SDS011;60583;50.094;8.748;2024-01-30T04:49:34;14.40;;;8.85;;
72557;SDS011;60583;50.094;8.748;2024-01-30T04:52:18;15.20;;;9.07;;
72557;SDS011;60583;50.094;8.748;2024-01-30T04:55:02;15.43;;;9.27;;
72557;SDS011;60583;50.094;8.748;2024-01-30T04:57:46;16.30;;;9.77;;
72557;SDS011;60583;50.094;8.748;2024-01-30T05:00:30;15.57;;;8.90;;
72557;SDS011;60583;50.094;8.748;2024-01-30T05:03:14;15.45;;;8.88;;
72557;SDS011;60583;50.094;8.748;2024-01-30T05:05:58;15.70;;;8.65;;
72557;SDS011;60583;50.094;8.748;2024-01-30T05:08:42;14.98;;;9.30;;
72557;SDS011;60583;50.094;8.748;2024-01-30T05:11:26;12.57;;;8.35;;
72557;SDS011;60583;50.094;8.748;2024-01-30T05:14:10;16.15;;;8.93;;
72557;SDS011;60583;50.094;8.748;2024-01-30T05:16:55;14.60;;;8.20;;
72557;SDS011;60583;50.094;8.748;2024-01-30T05:19:39;15.50;;;9.50;;
72557;SDS011;60583;50.094;8.748;2024-01-30T05:22:22;14.38;;;9.23;;
72557;SDS011;60583;50.094;8.748;2024-01-30T05:25:07;15.65;;;9.40;;
72557;SDS011;60583;50.094;8.748;2024-01-30T05:27:51;15.20;;;9.05;;
72557;SDS011;60583;50.094;8.748;2024-01-30T05:30:35;14.38;;;8.38;;
72557;SDS011;60583;50.094;8.748;2024-01-30T05:33:19;15.85;;;9.05;;
72557;SDS011;60583;50.094;8.748;2024-01-30T05:36:03;17.02;;;9.45;;
72557;SDS011;60583;50.094;8.748;2024-01-30T05:38:47;16.77;;;9.35;;
72557;SDS011;60583;50.094;8.748;2024-01-30T05:41:31;18.33;;;9.88;;
72557;SDS011;60583;50.094;8.748;2024-01-30T05:44:15;20.73;;;10.73;;
72557;SDS011;60583;50.094;8.748;2024-01-30T05:46:58;22.10;;;10.98;;
72557;SDS011;60583;50.094;8.748;2024-01-30T05:49:42;24.02;;;11.63;;
72557;SDS011;60583;50.094;8.748;2024-01-30T05:52:28;28.38;;;12.55;;
72557;SDS011;60583;50.094;8.748;2024-01-30T05:55:12;22.90;;;12.20;;
72557;SDS011;60583;50.094;8.748;2024-01-30T05:57:57;20.90;;;12.07;;
72557;SDS011;60583;50.094;8.748;2024-01-30T06:00:41;21.65;;;11.10;;
72557;SDS011;60583;50.094;8.748;2024-01-30T06:03:25;19.08;;;10.00;;
72557;SDS011;60583;50.094;8.748;2024-01-30T06:06:09;18.20;;;10.60;;
72557;SDS011;60583;50.094;8.748;2024-01-30T06:08:53;17.85;;;10.35;;
72557;SDS011;60583;50.094;8.748;2024-01-30T06:11:39;17.17;;;11.32;;
72557;SDS011;60583;50.094;8.748;2024-01-30T06:14:23;16.63;;;10.13;;
72557;SDS011;60583;50.094;8.748;2024-01-30T06:17:07;16.33;;;10.48;;
72557;SDS011;60583;50.094;8.748;2024-01-30T06:19:55;19.65;;;10.80;;
72557;SDS011;60583;50.094;8.748;2024-01-30T06:22:39;17.45;;;10.00;;
72557;SDS011;60583;50.094;8.748;2024-01-30T06:25:23;16.05;;;9.27;;
72557;SDS011;60583;50.094;8.748;2024-01-30T06:28:07;18.75;;;9.90;;
72557;SDS011;60583;50.094;8.748;2024-01-30T06:30:51;20.27;;;10.88;;
72557;SDS011;60583;50.094;8.748;2024-01-30T06:33:35;22.77;;;12.70;;
72557;SDS011;60583;50.094;8.748;2024-01-30T06:36:19;19.60;;;10.90;;
72557;SDS011;60583;50.094;8.748;2024-01-30T06:39:03;17.30;;;9.85;;
72557;SDS011;60583;50.094;8.748;2024-01-30T06:41:47;16.08;;;9.48;;
72557;SDS011;60583;50.094;8.748;2024-01-30T06:44:31;16.85;;;10.02;;
72557;SDS011;60583;50.094;8.748;2024-01-30T06:47:15;16.33;;;9.15;;
72557;SDS011;60583;50.094;8.748;2024-01-30T06:49:59;17.75;;;9.60;;
72557;SDS011;60583;50.094;8.748;2024-01-30T06:52:43;16.02;;;10.13;;
72557;SDS011;60583;50.094;8.748;2024-01-30T06:55:27;18.27;;;10.80;;
72557;SDS011;60583;50.094;8.748;2024-01-30T06:58:11;17.23;;;10.05;;
72557;SDS011;60583;50.094;8.748;2024-01-30T07:00:55;15.93;;;9.35;;
72557;SDS011;60583;50.094;8.748;2024-01-30T07:03:40;14.13;;;8.75;;
72557;SDS011;60583;50.094;8.748;2024-01-30T07:06:23;15.07;;;8.93;;
72557;SDS011;60583;50.094;8.748;2024-01-30T07:09:08;18.77;;;9.13;;
72557;SDS011;60583;50.094;8.748;2024-01-30T07:11:54;16.05;;;9.32;;
72557;SDS011;60583;50.094;8.748;2024-01-30T07:14:39;17.00;;;10.25;;
72557;SDS011;60583;50.094;8.748;2024-01-30T07:17:23;17.50;;;10.68;;
72557;SDS011;60583;50.094;8.748;2024-01-30T07:20:08;16.90;;;10.55;;
72557;SDS011;60583;50.094;8.748;2024-01-30T07:22:52;15.98;;;10.20;;
72557;SDS011;60583;50.094;8.748;2024-01-30T07:25:36;18.85;;;11.38;;
72557;SDS011;60583;50.094;8.748;2024-01-30T07:28:20;18.08;;;11.45;;
72557;SDS011;60583;50.094;8.748;2024-01-30T07:31:04;19.90;;;10.88;;
72557;SDS011;60583;50.094;8.748;2024-01-30T07:33:49;20.05;;;11.45;;
72557;SDS011;60583;50.094;8.748;2024-01-30T07:36:32;19.45;;;11.55;;
72557;SDS011;60583;50.094;8.748;2024-01-30T07:39:16;19.02;;;11.60;;
72557;SDS011;60583;50.094;8.748;2024-01-30T07:42:00;19.27;;;10.98;;
72557;SDS011;60583;50.094;8.748;2024-01-30T07:44:44;17.35;;;10.70;;
72557;SDS011;60583;50.094;8.748;2024-01-30T07:47:28;21.67;;;11.60;;
72557;SDS011;60583;50.094;8.748;2024-01-30T07:50:12;22.92;;;12.25;;
72557;SDS011;60583;50.094;8.748;2024-01-30T07:52:56;16.45;;;10.27;;
72557;SDS011;60583;50.094;8.748;2024-01-30T07:55:40;17.27;;;10.10;;
72557;SDS011;60583;50.094;8.748;2024-01-30T07:58:24;18.67;;;10.27;;
72557;SDS011;60583;50.094;8.748;2024-01-30T08:01:10;20.13;;;12.13;;
72557;SDS011;60583;50.094;8.748;2024-01-30T08:03:54;19.85;;;11.27;;
72557;SDS011;60583;50.094;8.748;2024-01-30T08:06:38;18.08;;;9.45;;
72557;SDS011;60583;50.094;8.748;2024-01-30T08:09:22;15.20;;;9.55;;
72557;SDS011;60583;50.094;8.748;2024-01-30T08:12:06;16.65;;;9.07;;
72557;SDS011;60583;50.094;8.748;2024-01-30T08:14:50;15.55;;;8.98;;
72557;SDS011;60583;50.094;8.748;2024-01-30T08:17:34;15.50;;;10.05;;
72557;SDS011;60583;50.094;8.748;2024-01-30T08:20:18;15.55;;;9.43;;
72557;SDS011;60583;50.094;8.748;2024-01-30T08:23:01;13.60;;;8.98;;
72557;SDS011;60583;50.094;8.748;2024-01-30T08:25:45;18.90;;;10.00;;
72557;SDS011;60583;50.094;8.748;2024-01-30T08:28:29;15.93;;;9.40;;
72557;SDS011;60583;50.094;8.748;2024-01-30T08:31:13;15.57;;;10.07;;
72557;SDS011;60583;50.094;8.748;2024-01-30T08:33:57;18.58;;;11.07;;
72557;SDS011;60583;50.094;8.748;2024-01-30T08:36:42;20.77;;;11.70;;
72557;SDS011;60583;50.094;8.748;2024-01-30T08:39:26;22.40;;;12.70;;
72557;SDS011;60583;50.094;8.748;2024-01-30T08:42:10;22.17;;;12.32;;
72557;SDS011;60583;50.094;8.748;2024-01-30T08:44:54;20.17;;;11.85;;
72557;SDS011;60583;50.094;8.748;2024-01-30T08:47:40;22.13;;;12.25;;
72557;SDS011;60583;50.094;8.748;2024-01-30T08:50:24;21.63;;;12.32;;
72557;SDS011;60583;50.094;8.748;2024-01-30T08:53:08;19.05;;;11.25;;
72557;SDS011;60583;50.094;8.748;2024-01-30T08:55:52;19.30;;;11.30;;
72557;SDS011;60583;50.094;8.748;2024-01-30T08:58:35;17.90;;;10.98;;
72557;SDS011;60583;50.094;8.748;2024-01-30T09:01:19;19.35;;;11.02;;
72557;SDS011;60583;50.094;8.748;2024-01-30T09:04:03;18.98;;;10.98;;
72557;SDS011;60583;50.094;8.748;2024-01-30T09:06:47;18.20;;;11.18;;
72557;SDS011;60583;50.094;8.748;2024-01-30T09:09:32;19.48;;;12.52;;
72557;SDS011;60583;50.094;8.748;2024-01-30T09:12:15;20.55;;;12.25;;
72557;SDS011;60583;50.094;8.748;2024-01-30T09:14:59;21.02;;;11.73;;
72557;SDS011;60583;50.094;8.748;2024-01-30T09:17:43;21.10;;;12.05;;
72557;SDS011;60583;50.094;8.748;2024-01-30T09:20:27;20.80;;;12.07;;
72557;SDS011;60583;50.094;8.748;2024-01-30T09:23:11;22.10;;;11.10;;
72557;SDS011;60583;50.094;8.748;2024-01-30T09:25:55;18.88;;;10.90;;
72557;SDS011;60583;50.094;8.748;2024-01-30T09:28:39;15.55;;;11.07;;
72557;SDS011;60583;50.094;8.748;2024-01-30T09:31:26;18.65;;;11.90;;
72557;SDS011;60583;50.094;8.748;2024-01-30T09:34:10;16.50;;;10.65;;
72557;SDS011;60583;50.094;8.748;2024-01-30T09:36:54;18.98;;;12.15;;
72557;SDS011;60583;50.094;8.748;2024-01-30T09:39:38;16.33;;;11.05;;
72557;SDS011;60583;50.094;8.748;2024-01-30T09:42:32;18.73;;;11.80;;
72557;SDS011;60583;50.094;8.748;2024-01-30T09:45:24;21.15;;;12.23;;
72557;SDS011;60583;50.094;8.748;2024-01-30T09:48:09;21.35;;;12.07;;
72557;SDS011;60583;50.094;8.748;2024-01-30T09:50:53;19.38;;;12.30;;
72557;SDS011;60583;50.094;8.748;2024-01-30T09:53:37;18.23;;;11.63;;
72557;SDS011;60583;50.094;8.748;2024-01-30T09:56:23;20.92;;;12.98;;
72557;SDS011;60583;50.094;8.748;2024-01-30T09:59:07;19.15;;;12.32;;
72557;SDS011;60583;50.094;8.748;2024-01-30T10:01:51;19.48;;;12.75;;
72557;SDS011;60583;50.094;8.748;2024-01-30T10:04:35;20.73;;;12.32;;
72557;SDS011;60583;50.094;8.748;2024-01-30T10:07:19;19.77;;;12.43;;
72557;SDS011;60583;50.094;8.748;2024-01-30T10:10:05;18.85;;;11.70;;
72557;SDS011;60583;50.094;8.748;2024-01-30T10:12:49;17.77;;;11.75;;
72557;SDS011;60583;50.094;8.748;2024-01-30T10:15:33;19.90;;;12.20;;
72557;SDS011;60583;50.094;8.748;2024-01-30T10:18:18;23.40;;;14.07;;
72557;SDS011;60583;50.094;8.748;2024-01-30T10:21:02;22.98;;;14.63;;
72557;SDS011;60583;50.094;8.748;2024-01-30T10:23:46;24.00;;;15.48;;
72557;SDS011;60583;50.094;8.748;2024-01-30T10:26:30;28.95;;;17.77;;
72557;SDS011;60583;50.094;8.748;2024-01-30T10:29:17;29.05;;;16.10;;
72557;SDS011;60583;50.094;8.748;2024-01-30T10:32:02;29.27;;;14.90;;
72557;SDS011;60583;50.094;8.748;2024-01-30T10:34:47;24.75;;;14.70;;
72557;SDS011;60583;50.094;8.748;2024-01-30T10:37:31;22.42;;;12.98;;
72557;SDS011;60583;50.094;8.748;2024-01-30T10:40:16;23.25;;;14.25;;
72557;SDS011;60583;50.094;8.748;2024-01-30T10:43:05;29.52;;;16.38;;
72557;SDS011;60583;50.094;8.748;2024-01-30T10:45:54;27.65;;;14.77;;
72557;SDS011;60583;50.094;8.748;2024-01-30T10:48:42;27.17;;;15.60;;
72557;SDS011;60583;50.094;8.748;2024-01-30T10:51:28;24.52;;;13.43;;
72557;SDS011;60583;50.094;8.748;2024-01-30T10:54:12;28.38;;;15.07;;
72557;SDS011;60583;50.094;8.748;2024-01-30T10:56:56;27.70;;;15.32;;
72557;SDS011;60583;50.094;8.748;2024-01-30T10:59:44;29.92;;;17.35;;
72557;SDS011;60583;50.094;8.748;2024-01-30T11:02:28;30.83;;;16.48;;
72557;SDS011;60583;50.094;8.748;2024-01-30T11:05:13;21.92;;;12.90;;
72557;SDS011;60583;50.094;8.748;2024-01-30T11:07:59;22.48;;;13.82;;
72557;SDS011;60583;50.094;8.748;2024-01-30T11:10:46;34.22;;;17.15;;
72557;SDS011;60583;50.094;8.748;2024-01-30T11:13:31;32.10;;;17.55;;
72557;SDS011;60583;50.094;8.748;2024-01-30T11:16:15;19.83;;;12.25;;
72557;SDS011;60583;50.094;8.748;2024-01-30T11:19:00;22.10;;;12.32;;
72557;SDS011;60583;50.094;8.748;2024-01-30T11:21:45;17.42;;;11.60;;
72557;SDS011;60583;50.094;8.748;2024-01-30T11:24:29;17.45;;;11.18;;
72557;SDS011;60583;50.094;8.748;2024-01-30T11:27:13;15.70;;;11.00;;
72557;SDS011;60583;50.094;8.748;2024-01-30T11:30:02;17.48;;;11.27;;
72557;SDS011;60583;50.094;8.748;2024-01-30T11:32:46;23.20;;;12.40;;
72557;SDS011;60583;50.094;8.748;2024-01-30T11:35:34;19.20;;;11.35;;
72557;SDS011;60583;50.094;8.748;2024-01-30T11:38:19;16.65;;;10.40;;
72557;SDS011;60583;50.094;8.748;2024-01-30T11:41:05;17.80;;;11.18;;
72557;SDS011;60583;50.094;8.748;2024-01-30T11:43:52;15.43;;;10.02;;
72557;SDS011;60583;50.094;8.748;2024-01-30T11:46:37;15.38;;;10.30;;
72557;SDS011;60583;50.094;8.748;2024-01-30T11:49:21;14.70;;;10.88;;
72557;SDS011;60583;50.094;8.748;2024-01-30T11:52:07;15.32;;;10.73;;
72557;SDS011;60583;50.094;8.748;2024-01-30T11:54:50;14.90;;;9.93;;
72557;SDS011;60583;50.094;8.748;2024-01-30T11:57:35;14.13;;;9.93;;
72557;SDS011;60583;50.094;8.748;2024-01-30T12:00:20;18.27;;;10.43;;
72557;SDS011;60583;50.094;8.748;2024-01-30T12:03:04;15.15;;;10.55;;
72557;SDS011;60583;50.094;8.748;2024-01-30T12:05:57;14.13;;;9.95;;
72557;SDS011;60583;50.094;8.748;2024-01-30T12:08:42;15.43;;;9.85;;
72557;SDS011;60583;50.094;8.748;2024-01-30T12:11:26;14.05;;;9.77;;
72557;SDS011;60583;50.094;8.748;2024-01-30T12:14:11;13.70;;;9.13;;
72557;SDS011;60583;50.094;8.748;2024-01-30T12:16:56;14.55;;;9.98;;
72557;SDS011;60583;50.094;8.748;2024-01-30T12:19:40;13.68;;;9.00;;
72557;SDS011;60583;50.094;8.748;2024-01-30T12:22:23;13.90;;;9.13;;
72557;SDS011;60583;50.094;8.748;2024-01-30T12:25:08;15.45;;;9.27;;
72557;SDS011;60583;50.094;8.748;2024-01-30T12:27:53;14.63;;;9.45;;
72557;SDS011;60583;50.094;8.748;2024-01-30T12:30:38;13.65;;;9.30;;
72557;SDS011;60583;50.094;8.748;2024-01-30T12:33:24;14.90;;;9.10;;
72557;SDS011;60583;50.094;8.748;2024-01-30T12:36:11;14.52;;;9.20;;
72557;SDS011;60583;50.094;8.748;2024-01-30T12:38:56;14.48;;;9.25;;
72557;SDS011;60583;50.094;8.748;2024-01-30T12:41:40;14.30;;;8.63;;
72557;SDS011;60583;50.094;8.748;2024-01-30T12:44:24;14.80;;;9.60;;
72557;SDS011;60583;50.094;8.748;2024-01-30T12:47:11;15.02;;;9.13;;
72557;SDS011;60583;50.094;8.748;2024-01-30T12:49:55;15.80;;;9.93;;
72557;SDS011;60583;50.094;8.748;2024-01-30T12:52:39;16.45;;;9.38;;
72557;SDS011;60583;50.094;8.748;2024-01-30T12:55:23;13.23;;;9.20;;
72557;SDS011;60583;50.094;8.748;2024-01-30T12:58:08;16.02;;;9.23;;
72557;SDS011;60583;50.094;8.748;2024-01-30T13:00:52;16.42;;;9.38;;
72557;SDS011;60583;50.094;8.748;2024-01-30T13:03:37;15.93;;;9.15;;
72557;SDS011;60583;50.094;8.748;2024-01-30T13:06:21;16.13;;;9.57;;
72557;SDS011;60583;50.094;8.748;2024-01-30T13:09:05;14.57;;;10.23;;
72557;SDS011;60583;50.094;8.748;2024-01-30T13:11:49;17.40;;;10.23;;
72557;SDS011;60583;50.094;8.748;2024-01-30T13:14:34;16.70;;;9.80;;
72557;SDS011;60583;50.094;8.748;2024-01-30T13:17:18;14.13;;;9.18;;
72557;SDS011;60583;50.094;8.748;2024-01-30T13:20:02;15.55;;;9.93;;
72557;SDS011;60583;50.094;8.748;2024-01-30T13:22:48;18.77;;;10.38;;
72557;SDS011;60583;50.094;8.748;2024-01-30T13:25:33;16.08;;;9.65;;
72557;SDS011;60583;50.094;8.748;2024-01-30T13:28:17;17.15;;;10.13;;
72557;SDS011;60583;50.094;8.748;2024-01-30T13:31:02;14.68;;;9.82;;
72557;SDS011;60583;50.094;8.748;2024-01-30T13:33:47;17.67;;;9.82;;
72557;SDS011;60583;50.094;8.748;2024-01-30T13:36:32;14.82;;;9.75;;
72557;SDS011;60583;50.094;8.748;2024-01-30T13:39:16;15.32;;;9.50;;
72557;SDS011;60583;50.094;8.748;2024-01-30T13:42:00;16.63;;;9.80;;
72557;SDS011;60583;50.094;8.748;2024-01-30T13:44:44;16.80;;;10.50;;
72557;SDS011;60583;50.094;8.748;2024-01-30T13:47:28;16.92;;;9.85;;
72557;SDS011;60583;50.094;8.748;2024-01-30T13:50:12;15.85;;;9.50;;
72557;SDS011;60583;50.094;8.748;2024-01-30T13:52:58;14.32;;;9.48;;
72557;SDS011;60583;50.094;8.748;2024-01-30T13:55:42;14.30;;;9.65;;
72557;SDS011;60583;50.094;8.748;2024-01-30T13:58:26;16.05;;;10.13;;
72557;SDS011;60583;50.094;8.748;2024-01-30T14:01:10;15.95;;;10.27;;
72557;SDS011;60583;50.094;8.748;2024-01-30T14:03:54;16.45;;;9.82;;
72557;SDS011;60583;50.094;8.748;2024-01-30T14:06:38;17.73;;;10.65;;
72557;SDS011;60583;50.094;8.748;2024-01-30T14:09:22;15.48;;;9.48;;
72557;SDS011;60583;50.094;8.748;2024-01-30T14:12:06;15.63;;;9.00;;
72557;SDS011;60583;50.094;8.748;2024-01-30T14:14:51;15.63;;;9.55;;
72557;SDS011;60583;50.094;8.748;2024-01-30T14:17:35;17.23;;;9.88;;
72557;SDS011;60583;50.094;8.748;2024-01-30T14:20:20;14.55;;;9.32;;
72557;SDS011;60583;50.094;8.748;2024-01-30T14:23:03;16.67;;;10.15;;
72557;SDS011;60583;50.094;8.748;2024-01-30T14:25:47;13.93;;;9.05;;
72557;SDS011;60583;50.094;8.748;2024-01-30T14:28:32;14.75;;;9.65;;
72557;SDS011;60583;50.094;8.748;2024-01-30T14:31:17;14.80;;;9.68;;
72557;SDS011;60583;50.094;8.748;2024-01-30T14:34:02;15.07;;;9.80;;
72557;SDS011;60583;50.094;8.748;2024-01-30T14:36:46;17.63;;;10.32;;
72557;SDS011;60583;50.094;8.748;2024-01-30T14:39:30;13.30;;;9.82;;
72557;SDS011;60583;50.094;8.748;2024-01-30T14:42:14;15.15;;;10.18;;
72557;SDS011;60583;50.094;8.748;2024-01-30T14:44:59;17.00;;;10.23;;
72557;SDS011;60583;50.094;8.748;2024-01-30T14:47:43;16.50;;;10.32;;
72557;SDS011;60583;50.094;8.748;2024-01-30T14:50:26;16.65;;;10.15;;
72557;SDS011;60583;50.094;8.748;2024-01-30T14:53:12;15.57;;;9.85;;
72557;SDS011;60583;50.094;8.748;2024-01-30T14:55:55;17.13;;;10.95;;
72557;SDS011;60583;50.094;8.748;2024-01-30T14:58:39;14.93;;;10.23;;
72557;SDS011;60583;50.094;8.748;2024-01-30T15:01:23;16.73;;;10.73;;
72557;SDS011;60583;50.094;8.748;2024-01-30T15:04:07;16.83;;;10.43;;
72557;SDS011;60583;50.094;8.748;2024-01-30T15:06:51;15.80;;;10.48;;
72557;SDS011;60583;50.094;8.748;2024-01-30T15:09:35;16.63;;;10.70;;
72557;SDS011;60583;50.094;8.748;2024-01-30T15:12:19;17.17;;;10.75;;
72557;SDS011;60583;50.094;8.748;2024-01-30T15:15:04;17.00;;;10.52;;
72557;SDS011;60583;50.094;8.748;2024-01-30T15:17:51;18.67;;;10.73;;
72557;SDS011;60583;50.094;8.748;2024-01-30T15:20:35;17.10;;;10.60;;
72557;SDS011;60583;50.094;8.748;2024-01-30T15:23:19;17.92;;;11.07;;
72557;SDS011;60583;50.094;8.748;2024-01-30T15:26:03;17.10;;;10.52;;
72557;SDS011;60583;50.094;8.748;2024-01-30T15:28:47;17.67;;;10.35;;
72557;SDS011;60583;50.094;8.748;2024-01-30T15:31:31;17.58;;;10.68;;
72557;SDS011;60583;50.094;8.748;2024-01-30T15:34:15;17.58;;;10.98;;
72557;SDS011;60583;50.094;8.748;2024-01-30T15:36:59;18.77;;;11.93;;
72557;SDS011;60583;50.094;8.748;2024-01-30T15:39:43;16.60;;;11.15;;
72557;SDS011;60583;50.094;8.748;2024-01-30T15:42:27;19.55;;;11.40;;
72557;SDS011;60583;50.094;8.748;2024-01-30T15:45:12;18.58;;;10.40;;
72557;SDS011;60583;50.094;8.748;2024-01-30T15:47:56;18.45;;;11.07;;
72557;SDS011;60583;50.094;8.748;2024-01-30T15:50:42;18.88;;;10.73;;
72557;SDS011;60583;50.094;8.748;2024-01-30T15:53:26;18.35;;;11.23;;
72557;SDS011;60583;50.094;8.748;2024-01-30T15:56:10;18.38;;;11.48;;
72557;SDS011;60583;50.094;8.748;2024-01-30T15:58:53;18.10;;;11.57;;
72557;SDS011;60583;50.094;8.748;2024-01-30T16:01:37;18.58;;;11.65;;
72557;SDS011;60583;50.094;8.748;2024-01-30T16:04:21;17.15;;;10.60;;
72557;SDS011;60583;50.094;8.748;2024-01-30T16:07:07;19.35;;;10.95;;